sensor_id;sensor_type;location;lat;lon;timestamp;temperature;humidity
5775;DHT22;2913;51.120;6.772;2022-11-15T00:02:10;10.60;99.90
5775;DHT22;2913;51.120;6.772;2022-11-15T00:04:38;10.60;99.90
5775;DHT22;2913;51.120;6.772;2022-11-15T00:07:04;10.60;99.90
5775;DHT22;2913;51.120;6.772;2022-11-15T00:09:29;10.70;99.90
5775;DHT22;2913;51.120;6.772;2022-11-15T00:11:55;10.70;99.90
5775;DHT22;2913;51.120;6.772;2022-11-15T00:14:20;10.70;99.90
5775;DHT22;2913;51.120;6.772;2022-11-15T00:16:46;10.70;99.90
5775;DHT22;2913;51.120;6.772;2022-11-15T00:19:14;10.70;99.90
5775;DHT22;2913;51.120;6.772;2022-11-15T00:21:40;10.70;99.90
5775;DHT22;2913;51.120;6.772;2022-11-15T00:24:05;10.70;99.90
5775;DHT22;2913;51.120;6.772;2022-11-15T00:26:31;10.70;99.90
5775;DHT22;2913;51.120;6.772;2022-11-15T00:28:59;10.70;99.90
5775;DHT22;2913;51.120;6.772;2022-11-15T00:31:25;10.80;99.90
5775;DHT22;2913;51.120;6.772;2022-11-15T00:33:50;10.80;99.90
5775;DHT22;2913;51.120;6.772;2022-11-15T00:36:18;10.80;99.90
5775;DHT22;2913;51.120;6.772;2022-11-15T00:38:43;10.80;99.90
5775;DHT22;2913;51.120;6.772;2022-11-15T00:41:13;10.70;99.90
5775;DHT22;2913;51.120;6.772;2022-11-15T00:43:39;10.80;99.90
5775;DHT22;2913;51.120;6.772;2022-11-15T00:46:09;10.80;99.90
5775;DHT22;2913;51.120;6.772;2022-11-15T00:48:36;10.90;99.90
5775;DHT22;2913;51.120;6.772;2022-11-15T00:51:07;10.90;99.90
5775;DHT22;2913;51.120;6.772;2022-11-15T00:53:35;10.90;99.90
5775;DHT22;2913;51.120;6.772;2022-11-15T00:56:03;10.90;99.90
5775;DHT22;2913;51.120;6.772;2022-11-15T00:58:28;10.90;99.90
5775;DHT22;2913;51.120;6.772;2022-11-15T01:00:56;10.90;99.90
5775;DHT22;2913;51.120;6.772;2022-11-15T01:03:22;10.90;99.90
5775;DHT22;2913;51.120;6.772;2022-11-15T01:05:50;10.90;99.90
5775;DHT22;2913;51.120;6.772;2022-11-15T01:08:18;11.00;99.90
5775;DHT22;2913;51.120;6.772;2022-11-15T01:10:46;10.90;99.90
5775;DHT22;2913;51.120;6.772;2022-11-15T01:13:11;11.00;99.90
5775;DHT22;2913;51.120;6.772;2022-11-15T01:15:41;11.00;99.90
5775;DHT22;2913;51.120;6.772;2022-11-15T01:18:07;11.00;99.90
5775;DHT22;2913;51.120;6.772;2022-11-15T01:20:39;11.00;99.90
5775;DHT22;2913;51.120;6.772;2022-11-15T01:23:05;11.00;99.90
5775;DHT22;2913;51.120;6.772;2022-11-15T01:25:30;11.00;99.90
5775;DHT22;2913;51.120;6.772;2022-11-15T01:27:56;11.10;99.90
5775;DHT22;2913;51.120;6.772;2022-11-15T01:30:21;11.10;99.90
5775;DHT22;2913;51.120;6.772;2022-11-15T01:32:49;11.20;99.90
5775;DHT22;2913;51.120;6.772;2022-11-15T01:35:17;11.20;99.90
5775;DHT22;2913;51.120;6.772;2022-11-15T01:37:43;11.20;99.90
5775;DHT22;2913;51.120;6.772;2022-11-15T01:40:11;11.20;99.90
5775;DHT22;2913;51.120;6.772;2022-11-15T01:42:36;11.20;99.90
5775;DHT22;2913;51.120;6.772;2022-11-15T01:45:02;11.30;99.90
5775;DHT22;2913;51.120;6.772;2022-11-15T01:47:32;11.20;99.90
5775;DHT22;2913;51.120;6.772;2022-11-15T01:50:14;11.20;99.90
5775;DHT22;2913;51.120;6.772;2022-11-15T01:52:41;11.30;99.90
5775;DHT22;2913;51.120;6.772;2022-11-15T01:55:21;11.30;99.90
5775;DHT22;2913;51.120;6.772;2022-11-15T01:57:50;11.30;99.90
5775;DHT22;2913;51.120;6.772;2022-11-15T02:00:18;11.40;99.90
5775;DHT22;2913;51.120;6.772;2022-11-15T02:02:44;11.40;99.90
5775;DHT22;2913;51.120;6.772;2022-11-15T02:05:15;11.50;99.90
5775;DHT22;2913;51.120;6.772;2022-11-15T02:07:40;11.50;99.90
5775;DHT22;2913;51.120;6.772;2022-11-15T02:10:18;11.50;99.90
5775;DHT22;2913;51.120;6.772;2022-11-15T02:12:50;11.60;99.90
5775;DHT22;2913;51.120;6.772;2022-11-15T02:15:17;11.60;99.90
5775;DHT22;2913;51.120;6.772;2022-11-15T02:18:07;11.50;99.90
5775;DHT22;2913;51.120;6.772;2022-11-15T02:31:11;11.70;99.90
5775;DHT22;2913;51.120;6.772;2022-11-15T02:34:06;11.70;99.90
5775;DHT22;2913;51.120;6.772;2022-11-15T02:39:08;11.80;99.90
5775;DHT22;2913;51.120;6.772;2022-11-15T02:41:49;11.80;99.90
5775;DHT22;2913;51.120;6.772;2022-11-15T02:44:26;11.80;99.90
5775;DHT22;2913;51.120;6.772;2022-11-15T02:46:58;11.80;99.90
5775;DHT22;2913;51.120;6.772;2022-11-15T02:49:42;11.80;99.90
5775;DHT22;2913;51.120;6.772;2022-11-15T02:52:09;11.80;99.90
5775;DHT22;2913;51.120;6.772;2022-11-15T02:54:39;11.80;99.90
5775;DHT22;2913;51.120;6.772;2022-11-15T02:57:12;11.80;99.90
5775;DHT22;2913;51.120;6.772;2022-11-15T03:04:45;11.90;99.90
5775;DHT22;2913;51.120;6.772;2022-11-15T03:07:39;12.00;99.90
5775;DHT22;2913;51.120;6.772;2022-11-15T03:10:10;11.90;99.90
5775;DHT22;2913;51.120;6.772;2022-11-15T03:12:55;12.00;99.90
5775;DHT22;2913;51.120;6.772;2022-11-15T03:15:26;12.00;99.90
5775;DHT22;2913;51.120;6.772;2022-11-15T03:18:00;12.10;99.90
5775;DHT22;2913;51.120;6.772;2022-11-15T03:20:34;12.00;99.90
5775;DHT22;2913;51.120;6.772;2022-11-15T03:23:05;12.00;99.90
5775;DHT22;2913;51.120;6.772;2022-11-15T03:25:37;12.00;99.90
5775;DHT22;2913;51.120;6.772;2022-11-15T03:28:05;12.00;99.90
5775;DHT22;2913;51.120;6.772;2022-11-15T03:30:33;12.00;99.90
5775;DHT22;2913;51.120;6.772;2022-11-15T03:33:04;11.90;99.90
5775;DHT22;2913;51.120;6.772;2022-11-15T03:35:37;12.00;99.90
5775;DHT22;2913;51.120;6.772;2022-11-15T03:38:15;11.90;99.90
5775;DHT22;2913;51.120;6.772;2022-11-15T03:41:05;11.90;99.90
5775;DHT22;2913;51.120;6.772;2022-11-15T03:44:28;11.90;99.90
5775;DHT22;2913;51.120;6.772;2022-11-15T03:49:33;12.00;99.90
5775;DHT22;2913;51.120;6.772;2022-11-15T03:52:01;12.00;99.90
5775;DHT22;2913;51.120;6.772;2022-11-15T03:54:28;12.00;99.90
5775;DHT22;2913;51.120;6.772;2022-11-15T03:56:56;12.00;99.90
5775;DHT22;2913;51.120;6.772;2022-11-15T03:59:22;12.00;99.90
5775;DHT22;2913;51.120;6.772;2022-11-15T04:01:50;12.10;99.90
5775;DHT22;2913;51.120;6.772;2022-11-15T04:04:18;12.10;99.90
5775;DHT22;2913;51.120;6.772;2022-11-15T04:06:44;12.10;99.90
5775;DHT22;2913;51.120;6.772;2022-11-15T04:09:09;12.10;99.90
5775;DHT22;2913;51.120;6.772;2022-11-15T04:11:35;12.10;99.90
5775;DHT22;2913;51.120;6.772;2022-11-15T04:14:01;12.10;99.90
5775;DHT22;2913;51.120;6.772;2022-11-15T04:16:26;12.10;99.90
5775;DHT22;2913;51.120;6.772;2022-11-15T04:18:54;12.10;99.90
5775;DHT22;2913;51.120;6.772;2022-11-15T04:21:38;12.10;99.90
5775;DHT22;2913;51.120;6.772;2022-11-15T04:24:22;12.10;99.90
5775;DHT22;2913;51.120;6.772;2022-11-15T04:26:50;12.10;99.90
5775;DHT22;2913;51.120;6.772;2022-11-15T04:29:18;12.10;99.90
5775;DHT22;2913;51.120;6.772;2022-11-15T04:32:06;12.00;99.90
5775;DHT22;2913;51.120;6.772;2022-11-15T04:34:32;12.00;99.90
5775;DHT22;2913;51.120;6.772;2022-11-15T04:36:58;12.00;99.90
5775;DHT22;2913;51.120;6.772;2022-11-15T04:39:40;12.00;99.90
5775;DHT22;2913;51.120;6.772;2022-11-15T04:42:06;12.00;99.90
5775;DHT22;2913;51.120;6.772;2022-11-15T04:44:37;12.00;99.90
5775;DHT22;2913;51.120;6.772;2022-11-15T04:47:03;12.10;99.90
5775;DHT22;2913;51.120;6.772;2022-11-15T04:49:29;12.10;99.90
5775;DHT22;2913;51.120;6.772;2022-11-15T04:51:55;12.10;99.90
5775;DHT22;2913;51.120;6.772;2022-11-15T04:54:20;12.20;99.90
5775;DHT22;2913;51.120;6.772;2022-11-15T04:56:48;12.20;99.90
5775;DHT22;2913;51.120;6.772;2022-11-15T04:59:14;12.20;99.90
5775;DHT22;2913;51.120;6.772;2022-11-15T05:01:39;12.10;99.90
5775;DHT22;2913;51.120;6.772;2022-11-15T05:04:07;12.20;99.90
5775;DHT22;2913;51.120;6.772;2022-11-15T05:06:51;12.20;99.90
5775;DHT22;2913;51.120;6.772;2022-11-15T05:09:20;12.20;99.90
5775;DHT22;2913;51.120;6.772;2022-11-15T05:11:49;12.10;99.90
5775;DHT22;2913;51.120;6.772;2022-11-15T05:14:14;12.20;99.90
5775;DHT22;2913;51.120;6.772;2022-11-15T05:16:40;12.20;99.90
5775;DHT22;2913;51.120;6.772;2022-11-15T05:19:06;12.20;99.90
5775;DHT22;2913;51.120;6.772;2022-11-15T05:21:35;12.10;99.90
5775;DHT22;2913;51.120;6.772;2022-11-15T05:24:01;12.10;99.90
5775;DHT22;2913;51.120;6.772;2022-11-15T05:26:27;12.10;99.90
5775;DHT22;2913;51.120;6.772;2022-11-15T05:28:57;12.10;99.90
5775;DHT22;2913;51.120;6.772;2022-11-15T05:31:26;12.10;99.90
5775;DHT22;2913;51.120;6.772;2022-11-15T05:33:54;12.10;99.90
5775;DHT22;2913;51.120;6.772;2022-11-15T05:36:41;12.10;99.90
5775;DHT22;2913;51.120;6.772;2022-11-15T05:39:09;12.10;99.90
5775;DHT22;2913;51.120;6.772;2022-11-15T05:41:48;12.10;99.90
5775;DHT22;2913;51.120;6.772;2022-11-15T05:44:21;12.10;99.90
5775;DHT22;2913;51.120;6.772;2022-11-15T05:46:49;12.10;99.90
5775;DHT22;2913;51.120;6.772;2022-11-15T05:49:19;12.10;99.90
5775;DHT22;2913;51.120;6.772;2022-11-15T05:51:46;12.10;99.90
5775;DHT22;2913;51.120;6.772;2022-11-15T05:54:13;12.10;99.90
5775;DHT22;2913;51.120;6.772;2022-11-15T05:56:39;12.20;99.90
5775;DHT22;2913;51.120;6.772;2022-11-15T05:59:08;12.20;99.90
5775;DHT22;2913;51.120;6.772;2022-11-15T06:01:39;12.20;99.90
5775;DHT22;2913;51.120;6.772;2022-11-15T06:04:05;12.10;99.90
5775;DHT22;2913;51.120;6.772;2022-11-15T06:06:31;12.20;99.90
5775;DHT22;2913;51.120;6.772;2022-11-15T06:08:56;12.20;99.90
5775;DHT22;2913;51.120;6.772;2022-11-15T06:11:22;12.20;99.90
5775;DHT22;2913;51.120;6.772;2022-11-15T06:13:48;12.20;99.90
5775;DHT22;2913;51.120;6.772;2022-11-15T06:16:13;12.20;99.90
5775;DHT22;2913;51.120;6.772;2022-11-15T06:18:39;12.20;99.90
5775;DHT22;2913;51.120;6.772;2022-11-15T06:21:05;12.30;99.90
5775;DHT22;2913;51.120;6.772;2022-11-15T06:23:34;12.30;99.90
5775;DHT22;2913;51.120;6.772;2022-11-15T06:26:01;12.30;99.90
5775;DHT22;2913;51.120;6.772;2022-11-15T06:28:33;12.30;99.90
5775;DHT22;2913;51.120;6.772;2022-11-15T06:31:05;12.30;99.90
5775;DHT22;2913;51.120;6.772;2022-11-15T06:33:31;12.30;99.90
5775;DHT22;2913;51.120;6.772;2022-11-15T06:36:09;12.30;99.90
5775;DHT22;2913;51.120;6.772;2022-11-15T06:38:35;12.20;99.90
5775;DHT22;2913;51.120;6.772;2022-11-15T06:41:06;12.20;99.90
5775;DHT22;2913;51.120;6.772;2022-11-15T06:43:33;12.20;99.90
5775;DHT22;2913;51.120;6.772;2022-11-15T06:46:02;12.20;99.90
5775;DHT22;2913;51.120;6.772;2022-11-15T06:48:28;12.10;99.90
5775;DHT22;2913;51.120;6.772;2022-11-15T06:50:57;12.10;99.90
5775;DHT22;2913;51.120;6.772;2022-11-15T06:53:24;12.10;99.90
5775;DHT22;2913;51.120;6.772;2022-11-15T06:55:50;12.00;99.90
5775;DHT22;2913;51.120;6.772;2022-11-15T06:58:20;12.00;99.90
5775;DHT22;2913;51.120;6.772;2022-11-15T07:00:46;12.00;99.90
5775;DHT22;2913;51.120;6.772;2022-11-15T07:03:16;11.90;99.90
5775;DHT22;2913;51.120;6.772;2022-11-15T07:05:42;12.00;99.90
5775;DHT22;2913;51.120;6.772;2022-11-15T07:08:07;11.90;99.90
5775;DHT22;2913;51.120;6.772;2022-11-15T07:10:36;11.90;99.90
5775;DHT22;2913;51.120;6.772;2022-11-15T07:13:04;11.90;99.90
5775;DHT22;2913;51.120;6.772;2022-11-15T07:15:30;11.90;99.90
5775;DHT22;2913;51.120;6.772;2022-11-15T07:18:01;11.90;99.90
5775;DHT22;2913;51.120;6.772;2022-11-15T07:20:26;11.90;99.90
5775;DHT22;2913;51.120;6.772;2022-11-15T07:23:00;11.90;99.90
5775;DHT22;2913;51.120;6.772;2022-11-15T07:25:28;11.90;99.90
5775;DHT22;2913;51.120;6.772;2022-11-15T07:27:55;12.00;99.90
5775;DHT22;2913;51.120;6.772;2022-11-15T07:30:25;11.90;99.90
5775;DHT22;2913;51.120;6.772;2022-11-15T07:32:58;12.00;99.90
5775;DHT22;2913;51.120;6.772;2022-11-15T07:35:25;12.00;99.90
5775;DHT22;2913;51.120;6.772;2022-11-15T07:37:57;12.00;99.90
5775;DHT22;2913;51.120;6.772;2022-11-15T07:40:26;12.00;99.90
5775;DHT22;2913;51.120;6.772;2022-11-15T07:42:52;12.00;99.90
5775;DHT22;2913;51.120;6.772;2022-11-15T07:45:21;12.10;99.90
5775;DHT22;2913;51.120;6.772;2022-11-15T07:47:51;12.10;99.90
5775;DHT22;2913;51.120;6.772;2022-11-15T07:50:17;12.10;99.90
5775;DHT22;2913;51.120;6.772;2022-11-15T07:52:45;12.20;99.90
5775;DHT22;2913;51.120;6.772;2022-11-15T07:55:11;12.20;99.90
5775;DHT22;2913;51.120;6.772;2022-11-15T07:57:39;12.20;99.90
5775;DHT22;2913;51.120;6.772;2022-11-15T08:00:06;12.20;99.90
5775;DHT22;2913;51.120;6.772;2022-11-15T08:02:31;12.20;99.90
5775;DHT22;2913;51.120;6.772;2022-11-15T08:04:57;12.20;99.90
5775;DHT22;2913;51.120;6.772;2022-11-15T08:07:27;12.20;99.90
5775;DHT22;2913;51.120;6.772;2022-11-15T08:09:53;12.20;99.90
5775;DHT22;2913;51.120;6.772;2022-11-15T08:12:19;12.20;99.90
5775;DHT22;2913;51.120;6.772;2022-11-15T08:14:45;12.20;99.90
5775;DHT22;2913;51.120;6.772;2022-11-15T08:17:11;12.20;99.90
5775;DHT22;2913;51.120;6.772;2022-11-15T08:19:36;12.30;99.90
5775;DHT22;2913;51.120;6.772;2022-11-15T08:22:04;12.20;99.90
5775;DHT22;2913;51.120;6.772;2022-11-15T08:24:30;12.30;99.90
5775;DHT22;2913;51.120;6.772;2022-11-15T08:26:55;12.30;99.90
5775;DHT22;2913;51.120;6.772;2022-11-15T08:29:21;12.40;99.90
5775;DHT22;2913;51.120;6.772;2022-11-15T08:31:47;12.40;99.90
5775;DHT22;2913;51.120;6.772;2022-11-15T08:34:12;12.40;99.90
5775;DHT22;2913;51.120;6.772;2022-11-15T08:36:40;12.50;99.90
5775;DHT22;2913;51.120;6.772;2022-11-15T08:39:06;12.50;99.90
5775;DHT22;2913;51.120;6.772;2022-11-15T08:41:36;12.50;99.90
5775;DHT22;2913;51.120;6.772;2022-11-15T08:44:05;12.60;99.90
5775;DHT22;2913;51.120;6.772;2022-11-15T08:46:30;12.60;99.90
5775;DHT22;2913;51.120;6.772;2022-11-15T08:48:56;12.60;99.90
5775;DHT22;2913;51.120;6.772;2022-11-15T08:51:22;12.70;99.90
5775;DHT22;2913;51.120;6.772;2022-11-15T08:53:50;12.70;99.90
5775;DHT22;2913;51.120;6.772;2022-11-15T08:56:15;12.50;99.90
5775;DHT22;2913;51.120;6.772;2022-11-15T08:58:41;12.50;99.90
5775;DHT22;2913;51.120;6.772;2022-11-15T09:01:15;12.60;99.90
5775;DHT22;2913;51.120;6.772;2022-11-15T09:03:41;12.50;99.90
5775;DHT22;2913;51.120;6.772;2022-11-15T09:06:09;12.50;99.90
5775;DHT22;2913;51.120;6.772;2022-11-15T09:08:35;12.60;99.90
5775;DHT22;2913;51.120;6.772;2022-11-15T09:11:07;12.70;99.90
5775;DHT22;2913;51.120;6.772;2022-11-15T09:13:33;12.70;99.90
5775;DHT22;2913;51.120;6.772;2022-11-15T09:15:59;12.70;99.90
5775;DHT22;2913;51.120;6.772;2022-11-15T09:18:28;12.60;99.90
5775;DHT22;2913;51.120;6.772;2022-11-15T09:20:57;12.70;99.90
5775;DHT22;2913;51.120;6.772;2022-11-15T09:23:27;12.60;99.90
5775;DHT22;2913;51.120;6.772;2022-11-15T09:26:02;12.70;99.90
5775;DHT22;2913;51.120;6.772;2022-11-15T09:28:29;12.70;99.90
5775;DHT22;2913;51.120;6.772;2022-11-15T09:30:59;12.80;99.90
5775;DHT22;2913;51.120;6.772;2022-11-15T09:33:28;12.90;99.90
5775;DHT22;2913;51.120;6.772;2022-11-15T09:35:57;13.00;99.90
5775;DHT22;2913;51.120;6.772;2022-11-15T09:38:24;13.10;99.90
5775;DHT22;2913;51.120;6.772;2022-11-15T09:41:22;13.10;99.90
5775;DHT22;2913;51.120;6.772;2022-11-15T09:49:16;13.20;99.90
5775;DHT22;2913;51.120;6.772;2022-11-15T09:51:50;13.30;99.90
5775;DHT22;2913;51.120;6.772;2022-11-15T09:54:35;13.30;99.90
5775;DHT22;2913;51.120;6.772;2022-11-15T09:57:13;13.30;99.90
5775;DHT22;2913;51.120;6.772;2022-11-15T10:04:41;13.40;99.90
5775;DHT22;2913;51.120;6.772;2022-11-15T10:07:31;13.40;99.90
5775;DHT22;2913;51.120;6.772;2022-11-15T10:10:27;13.40;99.90
5775;DHT22;2913;51.120;6.772;2022-11-15T10:12:55;13.40;99.90
5775;DHT22;2913;51.120;6.772;2022-11-15T10:15:21;13.30;99.90
5775;DHT22;2913;51.120;6.772;2022-11-15T10:23:15;13.70;99.90
5775;DHT22;2913;51.120;6.772;2022-11-15T10:25:41;13.60;99.90
5775;DHT22;2913;51.120;6.772;2022-11-15T10:30:52;13.70;99.90
5775;DHT22;2913;51.120;6.772;2022-11-15T10:44:29;13.80;99.90
5775;DHT22;2913;51.120;6.772;2022-11-15T10:49:37;13.90;99.90
5775;DHT22;2913;51.120;6.772;2022-11-15T10:52:19;13.90;99.90
5775;DHT22;2913;51.120;6.772;2022-11-15T10:57:54;14.00;99.90
5775;DHT22;2913;51.120;6.772;2022-11-15T11:05:38;14.10;99.90
5775;DHT22;2913;51.120;6.772;2022-11-15T11:10:40;14.20;99.90
5775;DHT22;2913;51.120;6.772;2022-11-15T11:19:08;14.20;99.90
5775;DHT22;2913;51.120;6.772;2022-11-15T11:48:51;14.10;99.90
5775;DHT22;2913;51.120;6.772;2022-11-15T11:51:27;14.10;99.90
5775;DHT22;2913;51.120;6.772;2022-11-15T11:54:05;14.10;99.90
5775;DHT22;2913;51.120;6.772;2022-11-15T11:56:33;14.10;99.90
5775;DHT22;2913;51.120;6.772;2022-11-15T12:01:45;14.20;99.90
5775;DHT22;2913;51.120;6.772;2022-11-15T12:06:55;14.30;99.90
5775;DHT22;2913;51.120;6.772;2022-11-15T12:14:51;14.30;99.90
5775;DHT22;2913;51.120;6.772;2022-11-15T12:17:26;14.30;99.90
5775;DHT22;2913;51.120;6.772;2022-11-15T12:19:58;14.30;99.90
5775;DHT22;2913;51.120;6.772;2022-11-15T12:25:35;14.40;99.90
5775;DHT22;2913;51.120;6.772;2022-11-15T12:31:11;14.50;99.90
5775;DHT22;2913;51.120;6.772;2022-11-15T12:33:43;14.60;99.90
5775;DHT22;2913;51.120;6.772;2022-11-15T12:36:35;14.80;99.90
5775;DHT22;2913;51.120;6.772;2022-11-15T12:39:06;14.80;99.90
5775;DHT22;2913;51.120;6.772;2022-11-15T12:41:36;14.90;99.90
5775;DHT22;2913;51.120;6.772;2022-11-15T12:44:03;14.80;99.90
5775;DHT22;2913;51.120;6.772;2022-11-15T12:59:52;15.10;99.90
5775;DHT22;2913;51.120;6.772;2022-11-15T13:02:40;15.10;99.90
5775;DHT22;2913;51.120;6.772;2022-11-15T13:08:00;15.00;99.90
5775;DHT22;2913;51.120;6.772;2022-11-15T13:12:55;14.90;99.90
5775;DHT22;2913;51.120;6.772;2022-11-15T13:18:39;14.80;99.90
5775;DHT22;2913;51.120;6.772;2022-11-15T13:21:23;14.90;99.90
5775;DHT22;2913;51.120;6.772;2022-11-15T13:24:16;14.70;99.90
5775;DHT22;2913;51.120;6.772;2022-11-15T13:26:45;14.70;99.90
5775;DHT22;2913;51.120;6.772;2022-11-15T13:29:20;14.70;99.90
5775;DHT22;2913;51.120;6.772;2022-11-15T13:31:46;14.80;99.90
5775;DHT22;2913;51.120;6.772;2022-11-15T13:34:33;14.90;99.90
5775;DHT22;2913;51.120;6.772;2022-11-15T13:37:02;14.90;99.90
5775;DHT22;2913;51.120;6.772;2022-11-15T13:39:33;14.90;99.90
5775;DHT22;2913;51.120;6.772;2022-11-15T13:42:02;14.90;99.90
5775;DHT22;2913;51.120;6.772;2022-11-15T13:44:30;14.80;99.90
5775;DHT22;2913;51.120;6.772;2022-11-15T13:47:13;14.80;99.90
5775;DHT22;2913;51.120;6.772;2022-11-15T13:49:40;14.70;99.90
5775;DHT22;2913;51.120;6.772;2022-11-15T13:52:08;14.70;99.90
5775;DHT22;2913;51.120;6.772;2022-11-15T13:57:28;14.70;99.90
5775;DHT22;2913;51.120;6.772;2022-11-15T14:00:01;14.60;99.90
5775;DHT22;2913;51.120;6.772;2022-11-15T14:02:31;14.70;99.90
5775;DHT22;2913;51.120;6.772;2022-11-15T14:05:02;14.60;99.90
5775;DHT22;2913;51.120;6.772;2022-11-15T14:07:28;14.60;99.90
5775;DHT22;2913;51.120;6.772;2022-11-15T14:09:57;14.70;99.90
5775;DHT22;2913;51.120;6.772;2022-11-15T14:12:52;14.70;99.90
5775;DHT22;2913;51.120;6.772;2022-11-15T14:15:33;14.70;99.90
5775;DHT22;2913;51.120;6.772;2022-11-15T14:17:59;14.60;99.90
5775;DHT22;2913;51.120;6.772;2022-11-15T14:22:58;14.60;99.90
5775;DHT22;2913;51.120;6.772;2022-11-15T14:25:29;14.50;99.90
5775;DHT22;2913;51.120;6.772;2022-11-15T14:28:15;14.50;99.90
5775;DHT22;2913;51.120;6.772;2022-11-15T14:30:43;14.50;99.90
5775;DHT22;2913;51.120;6.772;2022-11-15T14:33:35;14.50;99.90
5775;DHT22;2913;51.120;6.772;2022-11-15T14:36:14;14.50;99.90
5775;DHT22;2913;51.120;6.772;2022-11-15T14:38:41;14.40;99.90
5775;DHT22;2913;51.120;6.772;2022-11-15T14:43:45;14.50;99.90
5775;DHT22;2913;51.120;6.772;2022-11-15T14:46:13;14.40;99.90
5775;DHT22;2913;51.120;6.772;2022-11-15T14:48:41;14.40;99.90
5775;DHT22;2913;51.120;6.772;2022-11-15T14:51:17;14.40;99.90
5775;DHT22;2913;51.120;6.772;2022-11-15T14:53:43;14.40;99.90
5775;DHT22;2913;51.120;6.772;2022-11-15T14:56:09;14.30;99.90
5775;DHT22;2913;51.120;6.772;2022-11-15T14:58:38;14.30;99.90
5775;DHT22;2913;51.120;6.772;2022-11-15T15:01:13;14.40;99.90
5775;DHT22;2913;51.120;6.772;2022-11-15T15:03:43;14.30;99.90
5775;DHT22;2913;51.120;6.772;2022-11-15T15:06:11;14.30;99.90
5775;DHT22;2913;51.120;6.772;2022-11-15T15:08:42;14.30;99.90
5775;DHT22;2913;51.120;6.772;2022-11-15T15:11:14;14.40;99.90
5775;DHT22;2913;51.120;6.772;2022-11-15T15:13:42;14.30;99.90
5775;DHT22;2913;51.120;6.772;2022-11-15T15:16:08;14.30;99.90
5775;DHT22;2913;51.120;6.772;2022-11-15T15:18:34;14.30;99.90
5775;DHT22;2913;51.120;6.772;2022-11-15T15:21:02;14.30;99.90
5775;DHT22;2913;51.120;6.772;2022-11-15T15:23:32;14.30;99.90
5775;DHT22;2913;51.120;6.772;2022-11-15T15:26:00;14.30;99.90
5775;DHT22;2913;51.120;6.772;2022-11-15T15:28:26;14.30;99.90
5775;DHT22;2913;51.120;6.772;2022-11-15T15:30:52;14.30;99.90
5775;DHT22;2913;51.120;6.772;2022-11-15T15:33:18;14.20;99.90
5775;DHT22;2913;51.120;6.772;2022-11-15T15:35:43;14.20;99.90
5775;DHT22;2913;51.120;6.772;2022-11-15T15:38:12;14.20;99.90
5775;DHT22;2913;51.120;6.772;2022-11-15T15:40:41;14.20;99.90
5775;DHT22;2913;51.120;6.772;2022-11-15T15:43:09;14.30;99.90
5775;DHT22;2913;51.120;6.772;2022-11-15T15:45:37;14.30;99.90
5775;DHT22;2913;51.120;6.772;2022-11-15T15:48:03;14.30;99.90
5775;DHT22;2913;51.120;6.772;2022-11-15T15:50:33;14.30;99.90
5775;DHT22;2913;51.120;6.772;2022-11-15T15:53:02;14.30;99.90
5775;DHT22;2913;51.120;6.772;2022-11-15T15:55:31;14.20;99.90
5775;DHT22;2913;51.120;6.772;2022-11-15T15:58:00;14.20;99.90
5775;DHT22;2913;51.120;6.772;2022-11-15T16:00:26;14.20;99.90
5775;DHT22;2913;51.120;6.772;2022-11-15T16:02:52;14.20;99.90
5775;DHT22;2913;51.120;6.772;2022-11-15T16:05:21;14.20;99.90
5775;DHT22;2913;51.120;6.772;2022-11-15T16:07:47;14.10;99.90
5775;DHT22;2913;51.120;6.772;2022-11-15T16:12:44;14.10;99.90
5775;DHT22;2913;51.120;6.772;2022-11-15T16:15:09;14.10;99.90
5775;DHT22;2913;51.120;6.772;2022-11-15T16:17:38;14.10;99.90
5775;DHT22;2913;51.120;6.772;2022-11-15T16:20:05;14.10;99.90
5775;DHT22;2913;51.120;6.772;2022-11-15T16:22:31;14.10;99.90
5775;DHT22;2913;51.120;6.772;2022-11-15T16:24:59;14.10;99.90
5775;DHT22;2913;51.120;6.772;2022-11-15T16:27:27;14.10;99.90
5775;DHT22;2913;51.120;6.772;2022-11-15T16:29:55;14.10;99.90
5775;DHT22;2913;51.120;6.772;2022-11-15T16:32:20;14.00;99.90
5775;DHT22;2913;51.120;6.772;2022-11-15T16:34:46;14.10;99.90
5775;DHT22;2913;51.120;6.772;2022-11-15T16:37:25;14.10;99.90
5775;DHT22;2913;51.120;6.772;2022-11-15T16:39:51;14.10;99.90
5775;DHT22;2913;51.120;6.772;2022-11-15T16:42:16;14.10;99.90
5775;DHT22;2913;51.120;6.772;2022-11-15T16:44:45;14.00;99.90
5775;DHT22;2913;51.120;6.772;2022-11-15T16:47:17;14.00;99.90
5775;DHT22;2913;51.120;6.772;2022-11-15T16:49:44;14.00;99.90
5775;DHT22;2913;51.120;6.772;2022-11-15T16:52:10;14.10;99.90
5775;DHT22;2913;51.120;6.772;2022-11-15T16:54:35;14.00;99.90
5775;DHT22;2913;51.120;6.772;2022-11-15T16:57:06;14.10;99.90
5775;DHT22;2913;51.120;6.772;2022-11-15T16:59:32;14.10;99.90
5775;DHT22;2913;51.120;6.772;2022-11-15T17:01:58;14.00;99.90
5775;DHT22;2913;51.120;6.772;2022-11-15T17:04:25;14.00;99.90
5775;DHT22;2913;51.120;6.772;2022-11-15T17:06:58;14.00;99.90
5775;DHT22;2913;51.120;6.772;2022-11-15T17:09:25;14.00;99.90
5775;DHT22;2913;51.120;6.772;2022-11-15T17:11:53;14.10;99.90
5775;DHT22;2913;51.120;6.772;2022-11-15T17:14:19;14.10;99.90
5775;DHT22;2913;51.120;6.772;2022-11-15T17:16:45;14.10;99.90
5775;DHT22;2913;51.120;6.772;2022-11-15T17:19:16;14.10;99.90
5775;DHT22;2913;51.120;6.772;2022-11-15T17:21:42;14.10;99.90
5775;DHT22;2913;51.120;6.772;2022-11-15T17:24:11;14.10;99.90
5775;DHT22;2913;51.120;6.772;2022-11-15T17:26:37;14.10;99.90
5775;DHT22;2913;51.120;6.772;2022-11-15T17:29:09;14.10;99.90
5775;DHT22;2913;51.120;6.772;2022-11-15T17:31:36;14.10;99.90
5775;DHT22;2913;51.120;6.772;2022-11-15T17:34:05;14.10;99.90
5775;DHT22;2913;51.120;6.772;2022-11-15T17:36:31;14.10;99.90
5775;DHT22;2913;51.120;6.772;2022-11-15T17:38:56;14.10;99.90
5775;DHT22;2913;51.120;6.772;2022-11-15T17:41:24;14.10;99.90
5775;DHT22;2913;51.120;6.772;2022-11-15T17:43:50;14.10;99.90
5775;DHT22;2913;51.120;6.772;2022-11-15T17:46:19;14.10;99.90
5775;DHT22;2913;51.120;6.772;2022-11-15T17:48:49;14.00;99.90
5775;DHT22;2913;51.120;6.772;2022-11-15T17:51:18;14.00;99.90
5775;DHT22;2913;51.120;6.772;2022-11-15T17:53:46;14.00;99.90
5775;DHT22;2913;51.120;6.772;2022-11-15T17:56:18;13.90;99.90
5775;DHT22;2913;51.120;6.772;2022-11-15T17:58:48;13.80;99.90
5775;DHT22;2913;51.120;6.772;2022-11-15T18:01:18;13.80;99.90
5775;DHT22;2913;51.120;6.772;2022-11-15T18:03:44;13.80;99.90
5775;DHT22;2913;51.120;6.772;2022-11-15T18:06:11;13.70;99.90
5775;DHT22;2913;51.120;6.772;2022-11-15T18:08:38;13.70;99.90
5775;DHT22;2913;51.120;6.772;2022-11-15T18:13:44;13.60;99.90
5775;DHT22;2913;51.120;6.772;2022-11-15T18:16:15;13.50;99.90
5775;DHT22;2913;51.120;6.772;2022-11-15T18:18:42;13.50;99.90
5775;DHT22;2913;51.120;6.772;2022-11-15T18:21:12;13.40;99.90
5775;DHT22;2913;51.120;6.772;2022-11-15T18:23:41;13.40;99.90
5775;DHT22;2913;51.120;6.772;2022-11-15T18:26:09;13.30;99.90
5775;DHT22;2913;51.120;6.772;2022-11-15T18:28:39;13.20;99.90
5775;DHT22;2913;51.120;6.772;2022-11-15T18:31:17;13.20;99.90
5775;DHT22;2913;51.120;6.772;2022-11-15T18:33:43;13.20;99.90
5775;DHT22;2913;51.120;6.772;2022-11-15T18:36:12;13.10;99.90
5775;DHT22;2913;51.120;6.772;2022-11-15T18:38:38;13.10;99.90
5775;DHT22;2913;51.120;6.772;2022-11-15T18:41:11;13.00;99.90
5775;DHT22;2913;51.120;6.772;2022-11-15T18:43:37;13.00;99.90
5775;DHT22;2913;51.120;6.772;2022-11-15T18:46:11;13.00;99.90
5775;DHT22;2913;51.120;6.772;2022-11-15T18:48:41;13.00;99.90